Time;durP1;ratioP1;P1;durP2;ratioP2;P2;SDS_P1;SDS_P2;PMS_P1;PMS_P2;Temp;Humidity;BMP_temperature;BMP_pressure;BME280_temperature;BME280_humidity;BME280_pressure;Samples;Min_cycle;Max_cycle;Signal;HPM_P1;HPM_P2
2024/01/04 00:01:41;;;;;;;;;;;;;;;8.12;94.34;97097.31;109235;1256;59772;-64
2024/01/04 00:04:08;;;;;;;;;;;;;;;8.15;95.76;97095.58;109127;1256;75503;-63
2024/01/04 00:06:40;;;;;;;;;;;;;;;8.32;95.11;97093.81;109012;1256;68541;-64
2024/01/04 00:09:07;;;;;;;;;;;;;;;8.37;94.49;97096.95;109169;1255;71489;-64
2024/01/04 00:11:35;;;;;;;;;;;;;;;8.35;95.38;97099.59;109277;1255;59839;-64
2024/01/04 00:14:05;;;;;;;;;;;;;;;8.41;96.34;97100.64;109220;1254;59938;-64
2024/01/04 00:16:33;;;;;;;;;;;;;;;8.68;94.72;97100.89;109306;1255;75498;-66
2024/01/04 00:19:00;;;;;;;;;;;;;;;8.72;94.55;97099.98;109162;1255;67608;-64
2024/01/04 00:21:28;;;;;;;;;;;;;;;8.67;95.11;97102.73;108993;1257;71257;-63
2024/01/04 00:23:57;;;;;;;;;;;;;;;8.73;95.31;97103.61;109023;1259;60977;-65
2024/01/04 00:26:25;;;;;;;;;;;;;;;8.78;95.14;97103.66;109035;1257;59732;-65
2024/01/04 00:28:52;;;;;;;;;;;;;;;8.85;94.68;97109.98;108928;1257;75521;-65
2024/01/04 00:31:19;;;;;;;;;;;;;;;8.72;96.28;97105.34;109063;1257;67312;-65
2024/01/04 00:33:47;;;;;;;;;;;;;;;8.72;97.17;97103.15;109173;1255;72784;-65
2024/01/04 00:36:15;;;;;;;;;;;;;;;8.92;95.81;97103.45;109191;1256;59746;-66
2024/01/04 00:38:42;;;;;;;;;;;;;;;8.95;95.57;97102.70;109203;1254;59739;-66
2024/01/04 00:41:10;;;;;;;;;;;;;;;8.95;95.11;97102.15;109229;1256;75652;-68
2024/01/04 00:43:38;;;;;;;;;;;;;;;9.09;94.55;97105.48;109233;1255;68839;-66
2024/01/04 00:46:05;;;;;;;;;;;;;;;9.10;94.69;97105.07;109194;1255;71589;-63
2024/01/04 00:48:32;;;;;;;;;;;;;;;9.19;94.15;97103.00;109116;1257;60973;-66
2024/01/04 00:51:01;;;;;;;;;;;;;;;9.19;93.82;97101.86;109222;1256;59705;-65
2024/01/04 00:53:28;;;;;;;;;;;;;;;9.18;93.61;97106.17;109414;1254;76041;-68
2024/01/04 00:55:56;;;;;;;;;;;;;;;9.16;93.35;97110.83;109324;1254;68577;-66
2024/01/04 00:58:23;;;;;;;;;;;;;;;9.10;94.21;97116.54;109364;1254;72392;-66
2024/01/04 01:00:51;;;;;;;;;;;;;;;9.01;95.51;97116.73;109473;1253;60990;-67
2024/01/04 01:03:18;;;;;;;;;;;;;;;9.08;94.73;97119.48;109161;1254;60040;-68
2024/01/04 01:05:46;;;;;;;;;;;;;;;9.17;94.58;97125.04;109405;1254;75565;-69
2024/01/04 01:08:14;;;;;;;;;;;;;;;9.28;93.77;97124.52;109567;1252;67333;-69
2024/01/04 01:10:41;;;;;;;;;;;;;;;9.17;94.55;97125.41;109525;1251;71452;-69
2024/01/04 01:13:09;;;;;;;;;;;;;;;9.22;94.41;97121.77;109334;1254;60948;-69
2024/01/04 01:15:39;;;;;;;;;;;;;;;9.25;93.75;97123.58;109586;1256;59761;-69
2024/01/04 01:18:06;;;;;;;;;;;;;;;9.15;94.76;97123.32;109596;1252;74261;-69
2024/01/04 01:20:34;;;;;;;;;;;;;;;9.20;94.66;97126.75;109514;1255;67776;-70
2024/01/04 01:23:01;;;;;;;;;;;;;;;9.34;94.18;97130.15;109641;1252;72722;-69
2024/01/04 01:25:29;;;;;;;;;;;;;;;9.43;93.00;97133.02;109565;1253;59777;-69
2024/01/04 01:27:56;;;;;;;;;;;;;;;9.56;92.61;97130.96;109528;1252;59918;-69
2024/01/04 01:30:24;;;;;;;;;;;;;;;9.57;92.33;97134.18;109556;1252;75562;-69
2024/01/04 01:32:51;;;;;;;;;;;;;;;9.54;92.75;97128.48;109181;1252;68661;-69
2024/01/04 01:35:19;;;;;;;;;;;;;;;9.53;92.55;97125.67;109421;1254;72732;-67
2024/01/04 01:37:46;;;;;;;;;;;;;;;9.54;92.53;97126.44;109596;1252;60996;-67
2024/01/04 01:40:14;;;;;;;;;;;;;;;9.47;92.72;97125.61;109349;1256;59821;-69
2024/01/04 01:42:45;;;;;;;;;;;;;;;9.55;92.71;97126.27;109096;1256;75520;-68
2024/01/04 01:45:13;;;;;;;;;;;;;;;9.62;91.42;97122.02;109119;1256;68665;-69
2024/01/04 01:47:40;;;;;;;;;;;;;;;9.56;92.37;97121.10;109076;1257;71674;-69
2024/01/04 01:50:08;;;;;;;;;;;;;;;9.39;92.91;97119.63;109064;1258;60251;-68
2024/01/04 01:52:36;;;;;;;;;;;;;;;9.42;93.44;97121.34;109082;1256;60314;-68
2024/01/04 01:55:03;;;;;;;;;;;;;;;9.48;92.57;97115.52;109050;1256;75528;-66
2024/01/04 01:57:33;;;;;;;;;;;;;;;9.58;91.37;97116.77;109080;1257;68625;-66
2024/01/04 02:00:00;;;;;;;;;;;;;;;9.52;92.24;97121.33;109007;1257;71425;-66
2024/01/04 02:02:38;;;;;;;;;;;;;;;9.51;92.28;97120.41;109091;1257;61112;-66
2024/01/04 02:05:07;;;;;;;;;;;;;;;9.50;91.43;97118.73;109077;1258;59796;-64
2024/01/04 02:07:34;;;;;;;;;;;;;;;9.51;91.22;97117.70;109113;1256;74553;-69
2024/01/04 02:10:02;;;;;;;;;;;;;;;9.45;91.38;97118.11;109147;1255;67376;-65
2024/01/04 02:12:30;;;;;;;;;;;;;;;9.47;91.12;97119.19;109471;1251;71473;-65
2024/01/04 02:14:58;;;;;;;;;;;;;;;9.36;91.39;97117.03;109303;1255;60959;-65
2024/01/04 02:17:25;;;;;;;;;;;;;;;9.31;92.32;97117.77;109532;1252;59707;-65
2024/01/04 02:19:53;;;;;;;;;;;;;;;9.34;92.12;97120.15;109589;1252;74456;-65
2024/01/04 02:22:20;;;;;;;;;;;;;;;9.40;91.63;97116.23;109348;1252;67673;-62
2024/01/04 02:24:48;;;;;;;;;;;;;;;9.47;90.76;97112.33;109076;1256;70516;-64
2024/01/04 02:27:16;;;;;;;;;;;;;;;9.35;91.78;97114.52;109195;1257;59797;-64
2024/01/04 02:29:44;;;;;;;;;;;;;;;9.34;91.97;97116.11;109281;1256;60015;-64
2024/01/04 02:32:11;;;;;;;;;;;;;;;9.43;91.45;97119.08;109242;1256;75522;-66
2024/01/04 02:34:39;;;;;;;;;;;;;;;9.35;91.93;97118.89;109228;1256;68574;-65
2024/01/04 02:37:06;;;;;;;;;;;;;;;9.29;92.21;97123.85;109091;1256;72191;-66
2024/01/04 02:39:34;;;;;;;;;;;;;;;9.28;91.77;97126.80;109161;1256;59772;-67
2024/01/04 02:42:01;;;;;;;;;;;;;;;9.06;93.82;97127.91;109224;1255;59941;-64
2024/01/04 02:44:28;;;;;;;;;;;;;;;9.32;92.04;97135.23;109405;1255;75651;-64
2024/01/04 02:46:56;;;;;;;;;;;;;;;9.36;90.15;97138.52;109338;1256;67556;-63
2024/01/04 02:49:24;;;;;;;;;;;;;;;9.24;90.43;97141.67;109334;1255;72751;-66
2024/01/04 02:51:51;;;;;;;;;;;;;;;9.20;90.84;97146.65;109324;1257;60965;-62
2024/01/04 02:54:18;;;;;;;;;;;;;;;9.11;91.63;97150.48;109284;1254;59793;-65
2024/01/04 02:56:46;;;;;;;;;;;;;;;9.12;91.41;97151.34;109530;1253;75506;-65
2024/01/04 02:59:14;;;;;;;;;;;;;;;9.13;91.76;97152.32;109513;1253;67109;-64
2024/01/04 03:01:43;;;;;;;;;;;;;;;9.07;92.86;97155.40;109478;1253;72706;-65
2024/01/04 03:04:11;;;;;;;;;;;;;;;8.98;93.58;97155.76;109620;1253;60903;-65
2024/01/04 03:06:38;;;;;;;;;;;;;;;9.18;92.78;97155.67;109180;1253;59766;-65
2024/01/04 03:09:06;;;;;;;;;;;;;;;9.23;91.60;97155.08;109598;1253;74255;-65
2024/01/04 03:11:33;;;;;;;;;;;;;;;9.30;91.41;97157.88;109583;1252;67664;-65
2024/01/04 03:14:01;;;;;;;;;;;;;;;9.21;92.21;97155.14;109507;1253;71455;-67
2024/01/04 03:16:28;;;;;;;;;;;;;;;9.25;91.73;97156.17;109524;1256;60932;-65
2024/01/04 03:18:56;;;;;;;;;;;;;;;9.10;93.38;97151.65;109575;1253;59720;-65
2024/01/04 03:21:23;;;;;;;;;;;;;;;9.08;93.44;97148.32;109588;1253;75553;-63
2024/01/04 03:23:52;;;;;;;;;;;;;;;9.19;92.52;97147.84;109574;1252;67305;-62
2024/01/04 03:26:19;;;;;;;;;;;;;;;9.35;91.32;97147.96;109227;1253;72697;-63
2024/01/04 03:28:47;;;;;;;;;;;;;;;9.30;92.01;97146.48;109475;1253;60962;-64
2024/01/04 03:31:14;;;;;;;;;;;;;;;9.33;91.47;97147.36;109470;1252;59840;-62
2024/01/04 03:33:41;;;;;;;;;;;;;;;9.32;92.18;97146.69;109564;1252;74274;-63
2024/01/04 03:36:11;;;;;;;;;;;;;;;9.22;92.80;97142.42;109496;1253;68841;-62
2024/01/04 03:38:38;;;;;;;;;;;;;;;9.28;92.15;97144.59;109548;1252;71447;-64
2024/01/04 03:41:06;;;;;;;;;;;;;;;9.19;92.68;97142.55;109599;1252;60936;-62
2024/01/04 03:43:34;;;;;;;;;;;;;;;9.17;92.71;97143.23;109570;1253;59885;-64
2024/01/04 03:46:04;;;;;;;;;;;;;;;9.21;92.87;97141.33;109607;1252;75638;-65
2024/01/04 03:48:31;;;;;;;;;;;;;;;9.28;92.13;97142.13;109579;1252;67256;-63
2024/01/04 03:50:59;;;;;;;;;;;;;;;9.29;91.64;97142.41;109612;1252;72708;-62
2024/01/04 03:53:27;;;;;;;;;;;;;;;9.15;92.66;97139.69;109602;1251;59803;-64
2024/01/04 03:55:54;;;;;;;;;;;;;;;9.24;92.37;97141.52;109429;1252;59806;-62
2024/01/04 03:58:22;;;;;;;;;;;;;;;9.41;91.38;97139.99;109405;1252;75534;-64
2024/01/04 04:00:53;;;;;;;;;;;;;;;9.36;91.47;97138.52;109628;1256;68558;-61
2024/01/04 04:03:21;;;;;;;;;;;;;;;9.39;91.17;97138.92;109645;1251;72779;-65
2024/01/04 04:05:49;;;;;;;;;;;;;;;9.40;91.43;97140.43;109223;1260;59720;-65
2024/01/04 04:08:16;;;;;;;;;;;;;;;9.47;90.79;97142.84;109582;1252;59752;-64
2024/01/04 04:10:44;;;;;;;;;;;;;;;9.50;90.61;97149.58;109565;1252;74171;-61
2024/01/04 04:13:12;;;;;;;;;;;;;;;9.54;89.46;97154.14;109576;1253;67846;-61
2024/01/04 04:15:39;;;;;;;;;;;;;;;9.57;89.44;97155.89;109577;1253;71458;-61
2024/01/04 04:18:06;;;;;;;;;;;;;;;9.51;89.69;97156.10;109548;1252;61043;-65
2024/01/04 04:20:34;;;;;;;;;;;;;;;9.52;89.85;97157.30;109566;1253;59747;-61
2024/01/04 04:23:02;;;;;;;;;;;;;;;9.53;89.76;97156.42;109496;1252;75488;-63
2024/01/04 04:25:29;;;;;;;;;;;;;;;9.56;90.23;97158.81;109534;1253;68492;-62
2024/01/04 04:27:57;;;;;;;;;;;;;;;9.62;89.62;97158.88;109597;1252;71515;-62
2024/01/04 04:30:24;;;;;;;;;;;;;;;9.63;89.77;97158.48;109557;1253;59812;-60
2024/01/04 04:32:51;;;;;;;;;;;;;;;9.44;91.08;97153.59;109581;1252;60687;-60
2024/01/04 04:35:19;;;;;;;;;;;;;;;9.56;90.20;97155.07;109552;1253;75529;-60
2024/01/04 04:37:46;;;;;;;;;;;;;;;9.65;89.13;97154.14;109585;1253;67684;-61
2024/01/04 04:40:14;;;;;;;;;;;;;;;9.68;89.34;97151.92;109564;1252;72913;-60
2024/01/04 04:42:42;;;;;;;;;;;;;;;9.72;89.20;97145.55;109577;1253;60574;-59
2024/01/04 04:45:10;;;;;;;;;;;;;;;9.85;88.82;97145.48;109504;1252;59788;-59
2024/01/04 04:47:38;;;;;;;;;;;;;;;9.78;88.16;97143.75;109585;1253;75425;-60
2024/01/04 04:50:06;;;;;;;;;;;;;;;9.71;88.27;97152.66;109631;1252;68686;-60
2024/01/04 04:52:33;;;;;;;;;;;;;;;9.58;89.21;97155.16;109604;1251;72749;-59
2024/01/04 04:55:00;;;;;;;;;;;;;;;9.63;88.68;97157.71;109574;1255;59791;-59
2024/01/04 04:57:28;;;;;;;;;;;;;;;9.63;88.51;97158.91;109327;1255;59742;-59
2024/01/04 04:59:55;;;;;;;;;;;;;;;9.55;89.65;97163.54;109222;1257;75299;-60
2024/01/04 05:02:23;;;;;;;;;;;;;;;9.52;90.72;97166.66;109248;1255;66568;-60
2024/01/04 05:04:50;;;;;;;;;;;;;;;9.70;89.40;97166.98;109239;1256;71487;-62
2024/01/04 05:07:18;;;;;;;;;;;;;;;9.69;89.13;97172.48;109120;1255;60991;-61
2024/01/04 05:09:45;;;;;;;;;;;;;;;9.70;88.93;97178.04;109263;1256;59925;-60
2024/01/04 05:12:12;;;;;;;;;;;;;;;9.68;88.27;97186.20;109212;1255;75508;-61
2024/01/04 05:14:40;;;;;;;;;;;;;;;9.68;88.01;97188.09;109246;1256;66850;-61
2024/01/04 05:17:07;;;;;;;;;;;;;;;9.66;88.13;97191.30;109167;1256;72520;-60
2024/01/04 05:19:35;;;;;;;;;;;;;;;9.65;88.33;97194.32;109207;1256;61035;-62
2024/01/04 05:22:03;;;;;;;;;;;;;;;9.52;89.39;97191.20;109262;1256;59911;-61
2024/01/04 05:24:30;;;;;;;;;;;;;;;9.59;89.05;97197.52;109144;1256;146924;-61
2024/01/04 05:26:58;;;;;;;;;;;;;;;9.59;89.33;97198.75;109258;1256;68518;-61
2024/01/04 05:29:27;;;;;;;;;;;;;;;9.55;88.88;97197.92;109480;1253;72729;-60
2024/01/04 05:31:54;;;;;;;;;;;;;;;9.53;89.60;97199.81;109477;1254;59817;-60
2024/01/04 05:34:21;;;;;;;;;;;;;;;9.53;89.64;97196.38;109518;1257;60285;-63
2024/01/04 05:36:49;;;;;;;;;;;;;;;9.54;89.84;97198.58;109549;1252;74227;-61
2024/01/04 05:39:17;;;;;;;;;;;;;;;9.48;90.72;97199.81;109431;1253;67536;-61
2024/01/04 05:41:44;;;;;;;;;;;;;;;9.57;89.74;97203.19;109471;1253;70907;-60
2024/01/04 05:44:12;;;;;;;;;;;;;;;9.55;89.80;97205.16;109384;1253;60920;-61
2024/01/04 05:46:39;;;;;;;;;;;;;;;9.47;90.51;97208.24;109461;1254;59914;-63
2024/01/04 05:49:08;;;;;;;;;;;;;;;9.48;90.39;97211.91;109278;1253;77986;-60
2024/01/04 05:51:36;;;;;;;;;;;;;;;9.54;89.89;97216.47;109528;1253;67351;-60
2024/01/04 05:54:09;;;;;;;;;;;;;;;9.55;89.44;97216.63;109535;1253;72704;-60
2024/01/04 05:56:37;;;;;;;;;;;;;;;9.47;90.06;97218.20;109367;1253;60932;-61
2024/01/04 05:59:04;;;;;;;;;;;;;;;9.46;90.08;97227.98;109519;1253;59903;-61
2024/01/04 06:01:32;;;;;;;;;;;;;;;9.44;90.23;97229.14;109507;1253;75524;-60
2024/01/04 06:03:59;;;;;;;;;;;;;;;9.35;90.93;97228.73;109488;1253;68536;-59
2024/01/04 06:06:27;;;;;;;;;;;;;;;9.32;92.07;97232.36;109310;1253;72768;-61
2024/01/04 06:08:54;;;;;;;;;;;;;;;9.34;92.08;97230.17;109508;1257;60965;-59
2024/01/04 06:11:22;;;;;;;;;;;;;;;9.33;92.04;97232.23;109609;1253;59734;-59
2024/01/04 06:13:49;;;;;;;;;;;;;;;9.49;91.28;97234.64;109618;1254;75514;-64
2024/01/04 06:16:17;;;;;;;;;;;;;;;9.56;90.19;97235.19;109510;1252;69364;-61
2024/01/04 06:18:44;;;;;;;;;;;;;;;9.47;90.85;97235.64;109571;1254;72735;-60
2024/01/04 06:21:12;;;;;;;;;;;;;;;9.44;91.29;97237.30;109475;1254;59753;-61
2024/01/04 06:23:40;;;;;;;;;;;;;;;9.38;91.33;97238.38;109486;1254;59826;-59
2024/01/04 06:26:07;;;;;;;;;;;;;;;9.29;92.23;97237.98;109569;1253;74255;-60
2024/01/04 06:28:36;;;;;;;;;;;;;;;9.23;93.40;97232.98;109529;1253;68885;-61
2024/01/04 06:31:04;;;;;;;;;;;;;;;9.35;92.41;97234.54;109495;1252;71474;-61
2024/01/04 06:33:32;;;;;;;;;;;;;;;9.21;93.64;97233.82;109561;1253;59953;-61
2024/01/04 06:36:01;;;;;;;;;;;;;;;9.21;93.92;97234.52;109351;1253;59827;-60
2024/01/04 06:38:29;;;;;;;;;;;;;;;9.23;94.01;97234.00;109485;1253;75522;-61
2024/01/04 06:40:59;;;;;;;;;;;;;;;9.27;93.79;97236.42;109600;1253;67810;-58
2024/01/04 06:43:27;;;;;;;;;;;;;;;9.38;93.10;97240.42;109584;1253;71604;-58
2024/01/04 06:45:54;;;;;;;;;;;;;;;9.47;92.03;97241.77;109533;1253;59753;-60
2024/01/04 06:48:22;;;;;;;;;;;;;;;9.40;92.76;97245.07;109302;1253;60089;-60
2024/01/04 06:50:50;;;;;;;;;;;;;;;9.41;93.03;97242.21;109360;1253;75504;-61
2024/01/04 06:53:17;;;;;;;;;;;;;;;9.55;92.12;97241.15;109501;1254;67575;-61
2024/01/04 06:55:45;;;;;;;;;;;;;;;9.61;91.91;97241.92;109510;1254;71808;-60
2024/01/04 06:58:12;;;;;;;;;;;;;;;9.62;91.46;97237.44;109461;1253;59783;-61
2024/01/04 07:00:39;;;;;;;;;;;;;;;9.36;93.73;97237.29;109282;1253;59937;-60
2024/01/04 07:03:07;;;;;;;;;;;;;;;9.36;94.25;97242.38;109102;1259;74298;-61
2024/01/04 07:05:35;;;;;;;;;;;;;;;9.43;93.40;97246.61;109368;1252;68889;-61
2024/01/04 07:08:03;;;;;;;;;;;;;;;9.48;93.67;97245.65;109111;1255;72736;-61
2024/01/04 07:10:30;;;;;;;;;;;;;;;9.46;93.45;97246.39;109567;1253;60991;-61
2024/01/04 07:12:58;;;;;;;;;;;;;;;9.54;93.05;97243.70;109570;1254;59941;-61
2024/01/04 07:15:25;;;;;;;;;;;;;;;9.54;92.59;97241.28;109573;1252;75511;-62
2024/01/04 07:17:53;;;;;;;;;;;;;;;9.45;93.16;97242.34;109557;1251;66733;-61
2024/01/04 07:20:20;;;;;;;;;;;;;;;9.32;94.57;97241.20;109567;1253;71214;-62
2024/01/04 07:22:53;;;;;;;;;;;;;;;9.37;94.37;97241.55;109581;1253;59774;-62
2024/01/04 07:25:22;;;;;;;;;;;;;;;9.31;94.72;97243.19;109587;1254;59877;-60
2024/01/04 07:27:50;;;;;;;;;;;;;;;9.38;94.66;97246.08;109487;1251;74215;-63
2024/01/04 07:30:17;;;;;;;;;;;;;;;9.54;93.74;97248.56;109572;1253;67761;-62
2024/01/04 07:32:45;;;;;;;;;;;;;;;9.67;93.63;97253.89;109245;1253;71511;-64
2024/01/04 07:35:14;;;;;;;;;;;;;;;9.50;94.97;97255.02;109604;1254;59755;-62
2024/01/04 07:37:44;;;;;;;;;;;;;;;9.44;95.84;97254.09;109410;1256;60120;-61
2024/01/04 07:40:12;;;;;;;;;;;;;;;9.48;95.70;97255.60;109364;1253;75467;-61
2024/01/04 07:42:40;;;;;;;;;;;;;;;9.61;95.56;97256.71;109498;1252;68020;-62
2024/01/04 07:45:08;;;;;;;;;;;;;;;9.66;95.52;97257.57;109493;1252;71442;-66
2024/01/04 07:47:36;;;;;;;;;;;;;;;9.86;94.41;97258.69;109466;1253;61000;-65
2024/01/04 07:50:05;;;;;;;;;;;;;;;9.79;94.94;97256.02;109477;1254;59710;-64
2024/01/04 07:52:33;;;;;;;;;;;;;;;9.94;94.28;97254.80;109482;1254;75541;-62
2024/01/04 07:55:00;;;;;;;;;;;;;;;9.89;94.62;97255.52;109491;1253;68990;-62
2024/01/04 07:57:32;;;;;;;;;;;;;;;10.08;93.74;97256.71;109479;1254;71463;-61
2024/01/04 07:59:59;;;;;;;;;;;;;;;9.79;95.47;97252.96;109441;1254;60920;-61
2024/01/04 08:02:29;;;;;;;;;;;;;;;9.92;94.82;97252.55;109495;1253;59897;-63
2024/01/04 08:04:57;;;;;;;;;;;;;;;9.96;94.73;97257.21;109481;1253;74480;-64
2024/01/04 08:07:24;;;;;;;;;;;;;;;10.15;93.75;97260.67;109353;1254;68901;-64
2024/01/04 08:09:52;;;;;;;;;;;;;;;9.99;94.43;97263.73;109449;1253;72760;-61
2024/01/04 08:12:19;;;;;;;;;;;;;;;10.00;94.76;97263.70;109587;1253;59960;-62
2024/01/04 08:14:47;;;;;;;;;;;;;;;10.10;94.49;97262.27;109554;1254;59869;-63
2024/01/04 08:17:15;;;;;;;;;;;;;;;10.12;94.17;97263.69;109316;1253;75583;-64
2024/01/04 08:19:42;;;;;;;;;;;;;;;10.26;93.79;97264.48;109495;1253;68843;-63
2024/01/04 08:22:10;;;;;;;;;;;;;;;10.17;94.03;97267.60;109598;1252;72712;-62
2024/01/04 08:24:40;;;;;;;;;;;;;;;9.94;96.74;97264.67;109561;1253;59942;-62
2024/01/04 08:27:07;;;;;;;;;;;;;;;10.17;95.53;97263.30;109560;1253;59722;-65
2024/01/04 08:29:35;;;;;;;;;;;;;;;10.25;94.63;97266.01;109638;1254;75534;-64
2024/01/04 08:32:02;;;;;;;;;;;;;;;10.20;94.70;97261.50;109531;1253;68895;-64
2024/01/04 08:34:30;;;;;;;;;;;;;;;10.02;96.68;97256.95;109453;1252;72718;-64
2024/01/04 08:36:57;;;;;;;;;;;;;;;10.13;96.11;97266.78;109531;1252;60936;-64
2024/01/04 08:39:25;;;;;;;;;;;;;;;10.28;95.26;97265.92;109323;1255;59760;-64
2024/01/04 08:41:53;;;;;;;;;;;;;;;10.20;96.15;97259.16;109168;1256;74571;-65
2024/01/04 08:44:20;;;;;;;;;;;;;;;10.38;95.10;97267.05;109191;1257;68547;-65
2024/01/04 08:46:50;;;;;;;;;;;;;;;10.49;94.12;97263.40;109160;1256;72728;-65
2024/01/04 08:49:17;;;;;;;;;;;;;;;10.45;94.44;97264.48;109097;1257;59839;-65
2024/01/04 08:51:45;;;;;;;;;;;;;;;10.59;94.17;97263.31;109164;1255;59857;-66
2024/01/04 08:54:13;;;;;;;;;;;;;;;10.70;93.24;97260.87;109010;1256;74310;-61
2024/01/04 08:56:40;;;;;;;;;;;;;;;10.70;93.67;97254.65;109178;1257;67404;-65
2024/01/04 08:59:08;;;;;;;;;;;;;;;10.77;93.70;97256.38;109184;1257;71759;-64
2024/01/04 09:01:35;;;;;;;;;;;;;;;10.87;93.14;97258.25;109134;1257;59727;-65
2024/01/04 09:04:03;;;;;;;;;;;;;;;11.03;92.99;97259.35;109153;1256;59933;-63
2024/01/04 09:06:32;;;;;;;;;;;;;;;11.31;91.86;97249.73;109204;1257;74602;-64
2024/01/04 09:09:02;;;;;;;;;;;;;;;11.59;91.71;97248.61;109185;1254;66734;-64
2024/01/04 09:11:29;;;;;;;;;;;;;;;11.90;89.63;97249.27;109359;1254;71424;-65
2024/01/04 09:13:58;;;;;;;;;;;;;;;11.68;90.30;97245.17;109341;1256;60967;-65
2024/01/04 09:16:25;;;;;;;;;;;;;;;11.66;90.47;97250.13;109211;1257;59880;-65
2024/01/04 09:18:53;;;;;;;;;;;;;;;11.54;90.98;97253.08;109295;1256;75499;-64
2024/01/04 09:21:20;;;;;;;;;;;;;;;11.32;92.06;97253.55;109180;1256;68851;-64
2024/01/04 09:23:48;;;;;;;;;;;;;;;11.31;92.56;97257.67;109266;1255;72717;-64
2024/01/04 09:26:16;;;;;;;;;;;;;;;11.18;93.41;97259.20;109164;1256;60977;-64
2024/01/04 09:28:44;;;;;;;;;;;;;;;11.42;92.33;97258.13;109082;1257;59810;-65
2024/01/04 09:31:11;;;;;;;;;;;;;;;11.32;92.92;97257.27;109363;1255;75478;-64
2024/01/04 09:33:40;;;;;;;;;;;;;;;11.52;92.00;97258.25;109319;1256;67255;-63
2024/01/04 09:36:08;;;;;;;;;;;;;;;11.55;91.80;97255.48;109159;1256;71454;-66
2024/01/04 09:38:35;;;;;;;;;;;;;;;11.68;91.35;97258.13;109300;1255;59782;-65
2024/01/04 09:41:14;;;;;;;;;;;;;;;11.58;91.53;97254.95;109293;1254;59688;-65
2024/01/04 09:43:41;;;;;;;;;;;;;;;11.45;92.52;97256.89;109207;1255;75644;-66
2024/01/04 09:46:09;;;;;;;;;;;;;;;11.57;92.08;97258.86;109454;1253;68523;-66
2024/01/04 09:48:37;;;;;;;;;;;;;;;11.57;91.94;97257.40;109444;1253;72738;-65
2024/01/04 09:51:05;;;;;;;;;;;;;;;11.71;91.17;97256.61;109427;1254;59745;-65
2024/01/04 09:53:32;;;;;;;;;;;;;;;11.88;90.01;97261.27;109385;1253;59848;-66
2024/01/04 09:56:00;;;;;;;;;;;;;;;11.83;90.60;97259.17;109461;1252;74703;-65
2024/01/04 09:58:27;;;;;;;;;;;;;;;11.96;89.77;97259.91;109494;1253;67826;-64
2024/01/04 10:00:54;;;;;;;;;;;;;;;12.07;89.25;97254.65;109441;1253;71492;-63
2024/01/04 10:03:22;;;;;;;;;;;;;;;12.05;89.24;97252.14;109324;1255;59720;-64
2024/01/04 10:05:49;;;;;;;;;;;;;;;12.07;88.82;97253.15;109377;1253;59830;-62
2024/01/04 10:08:19;;;;;;;;;;;;;;;12.00;89.32;97250.42;109389;1252;74246;-64
2024/01/04 10:10:46;;;;;;;;;;;;;;;12.03;88.81;97245.31;109586;1251;68733;-65
2024/01/04 10:13:14;;;;;;;;;;;;;;;12.15;88.08;97246.00;109518;1254;72730;-64
2024/01/04 10:15:47;;;;;;;;;;;;;;;12.09;88.42;97241.48;109571;1252;60918;-65
2024/01/04 10:18:15;;;;;;;;;;;;;;;11.99;88.86;97239.36;109648;1253;59783;-65
2024/01/04 10:20:58;;;;;;;;;;;;;;;12.16;88.22;97240.20;109628;1252;75544;-65
2024/01/04 10:23:25;;;;;;;;;;;;;;;12.32;87.58;97240.00;109629;1253;67630;-63
2024/01/04 10:26:04;;;;;;;;;;;;;;;12.36;87.68;97241.15;109559;1253;71451;-66
2024/01/04 10:28:31;;;;;;;;;;;;;;;12.84;85.64;97239.85;109540;1253;60903;-65
2024/01/04 10:30:58;;;;;;;;;;;;;;;12.68;84.72;97236.27;109540;1252;59718;-65
2024/01/04 10:33:26;;;;;;;;;;;;;;;12.72;85.64;97238.90;109558;1252;75526;-64
2024/01/04 10:35:53;;;;;;;;;;;;;;;12.75;85.49;97235.86;109615;1253;68973;-64
2024/01/04 10:38:21;;;;;;;;;;;;;;;12.77;85.01;97231.75;109546;1251;72713;-62
2024/01/04 10:40:58;;;;;;;;;;;;;;;12.98;83.91;97227.41;109513;1252;59807;-64
2024/01/04 10:43:26;;;;;;;;;;;;;;;13.29;81.77;97229.48;109466;1257;59909;-61
2024/01/04 10:46:00;;;;;;;;;;;;;;;14.09;77.47;97230.52;109562;1252;74238;-63
2024/01/04 10:48:28;;;;;;;;;;;;;;;14.46;72.91;97230.29;109505;1252;68788;-64
2024/01/04 10:50:56;;;;;;;;;;;;;;;15.02;70.76;97234.55;109434;1253;72711;-64
2024/01/04 10:53:24;;;;;;;;;;;;;;;15.57;69.59;97232.64;109240;1253;61780;-64
2024/01/04 10:55:51;;;;;;;;;;;;;;;15.75;65.80;97234.85;109254;1252;59844;-66
2024/01/04 10:58:20;;;;;;;;;;;;;;;15.13;68.05;97236.30;109380;1254;75514;-65
2024/01/04 11:00:48;;;;;;;;;;;;;;;14.76;70.07;97239.52;109449;1254;68097;-65
2024/01/04 11:03:15;;;;;;;;;;;;;;;14.62;70.37;97245.04;109456;1253;71633;-65
2024/01/04 11:05:43;;;;;;;;;;;;;;;14.08;72.67;97243.96;109200;1254;60457;-66
2024/01/04 11:08:10;;;;;;;;;;;;;;;13.95;74.21;97248.52;109185;1252;59894;-65
2024/01/04 11:10:39;;;;;;;;;;;;;;;13.88;74.75;97248.65;109603;1253;75550;-65
2024/01/04 11:13:06;;;;;;;;;;;;;;;13.77;75.42;97248.39;109439;1252;68847;-66
2024/01/04 11:15:33;;;;;;;;;;;;;;;13.54;76.90;97246.24;109505;1252;72746;-65
2024/01/04 11:18:12;;;;;;;;;;;;;;;13.52;77.36;97248.30;109446;1253;60492;-66
2024/01/04 11:21:05;;;;;;;;;;;;;;;13.62;77.31;97246.52;109554;1253;59810;-65
2024/01/04 11:23:51;;;;;;;;;;;;;;;13.59;77.03;97251.19;109227;1251;73270;-66
2024/01/04 11:26:19;;;;;;;;;;;;;;;13.62;76.74;97250.59;109589;1252;68876;-64
2024/01/04 11:28:46;;;;;;;;;;;;;;;13.69;76.64;97254.15;109460;1253;71436;-65
2024/01/04 11:31:14;;;;;;;;;;;;;;;13.73;76.81;97248.82;109359;1254;61938;-66
2024/01/04 11:33:43;;;;;;;;;;;;;;;13.74;76.69;97246.55;109224;1254;59742;-66
2024/01/04 11:36:15;;;;;;;;;;;;;;;13.50;76.97;97240.61;109301;1254;75568;-66
2024/01/04 11:38:43;;;;;;;;;;;;;;;13.54;77.23;97236.45;109193;1254;68836;-65
2024/01/04 11:41:11;;;;;;;;;;;;;;;13.51;77.86;97234.41;109407;1254;72758;-64
2024/01/04 11:43:40;;;;;;;;;;;;;;;13.50;78.01;97235.59;109397;1254;61714;-66
2024/01/04 11:46:23;;;;;;;;;;;;;;;13.39;78.37;97239.44;109440;1254;59862;-66
2024/01/04 11:49:01;;;;;;;;;;;;;;;13.50;78.76;97239.30;109300;1255;75862;-66
2024/01/04 11:51:32;;;;;;;;;;;;;;;13.54;78.14;97243.38;109109;1255;68886;-66
2024/01/04 11:54:00;;;;;;;;;;;;;;;13.45;78.89;97245.06;109307;1254;72757;-68
2024/01/04 11:56:28;;;;;;;;;;;;;;;13.45;78.79;97245.06;109295;1256;59833;-67
2024/01/04 11:59:24;;;;;;;;;;;;;;;13.42;79.07;97245.73;109338;1255;59928;-66
2024/01/04 12:01:52;;;;;;;;;;;;;;;13.45;78.63;97249.68;108865;1260;74365;-67
2024/01/04 12:04:20;;;;;;;;;;;;;;;13.22;78.86;97252.31;108896;1260;68861;-65
2024/01/04 12:06:48;;;;;;;;;;;;;;;13.02;79.92;97253.24;108950;1260;71493;-66
2024/01/04 12:09:15;;;;;;;;;;;;;;;13.10;79.98;97250.26;108941;1259;61868;-66
2024/01/04 12:11:54;;;;;;;;;;;;;;;13.01;79.62;97249.29;108985;1259;59940;-66
2024/01/04 12:14:23;;;;;;;;;;;;;;;13.05;79.36;97252.37;109006;1259;74266;-66
2024/01/04 12:16:50;;;;;;;;;;;;;;;13.17;78.36;97253.45;109001;1259;69166;-66
2024/01/04 12:19:18;;;;;;;;;;;;;;;13.06;78.26;97255.70;108963;1259;71579;-67
2024/01/04 12:21:45;;;;;;;;;;;;;;;13.21;77.91;97257.73;108846;1259;59663;-65
2024/01/04 12:24:14;;;;;;;;;;;;;;;13.13;78.26;97258.19;108803;1259;59945;-66
2024/01/04 12:26:42;;;;;;;;;;;;;;;13.18;78.69;97258.73;108957;1259;74322;-67
2024/01/04 12:29:09;;;;;;;;;;;;;;;13.31;78.34;97256.01;108965;1259;67347;-66
2024/01/04 12:31:38;;;;;;;;;;;;;;;13.32;79.03;97255.73;108986;1259;73171;-65
2024/01/04 12:34:09;;;;;;;;;;;;;;;13.32;79.14;97257.46;108967;1259;60975;-65
2024/01/04 12:36:37;;;;;;;;;;;;;;;13.29;78.97;97259.67;108965;1259;59882;-65
2024/01/04 12:39:11;;;;;;;;;;;;;;;13.26;79.77;97258.86;109132;1253;75459;-65
2024/01/04 12:41:42;;;;;;;;;;;;;;;13.28;79.80;97253.96;109345;1253;67659;-65
2024/01/04 12:44:10;;;;;;;;;;;;;;;13.34;79.15;97259.27;109156;1254;71872;-67
2024/01/04 12:46:39;;;;;;;;;;;;;;;13.38;78.94;97263.04;109390;1254;59796;-68
2024/01/04 12:49:09;;;;;;;;;;;;;;;13.26;79.15;97265.20;109428;1253;59881;-66